sensor_id;sensor_type;location;lat;lon;timestamp;P1;durP1;ratioP1;P2;durP2;ratioP2
8702;SDS011;9002;42.708;23.186;2023-12-07T00:02:04;23.67;;;18.40;;
8702;SDS011;9002;42.708;23.186;2023-12-07T00:04:31;26.70;;;18.40;;
8702;SDS011;9002;42.708;23.186;2023-12-07T00:06:58;27.53;;;19.37;;
8702;SDS011;9002;42.708;23.186;2023-12-07T00:09:25;27.87;;;19.43;;
8702;SDS011;9002;42.708;23.186;2023-12-07T00:14:39;30.33;;;21.30;;
8702;SDS011;9002;42.708;23.186;2023-12-07T00:17:08;27.83;;;20.90;;
8702;SDS011;9002;42.708;23.186;2023-12-07T00:19:35;26.97;;;20.57;;
8702;SDS011;9002;42.708;23.186;2023-12-07T00:22:02;27.67;;;20.63;;
8702;SDS011;9002;42.708;23.186;2023-12-07T00:24:30;27.93;;;21.37;;
8702;SDS011;9002;42.708;23.186;2023-12-07T00:26:57;27.63;;;20.90;;
8702;SDS011;9002;42.708;23.186;2023-12-07T00:29:24;27.30;;;20.20;;
8702;SDS011;9002;42.708;23.186;2023-12-07T00:31:51;27.30;;;20.83;;
8702;SDS011;9002;42.708;23.186;2023-12-07T00:34:19;27.10;;;20.73;;
8702;SDS011;9002;42.708;23.186;2023-12-07T00:36:46;34.10;;;23.53;;
8702;SDS011;9002;42.708;23.186;2023-12-07T00:39:13;32.20;;;23.60;;
8702;SDS011;9002;42.708;23.186;2023-12-07T00:41:40;35.57;;;24.27;;
8702;SDS011;9002;42.708;23.186;2023-12-07T00:44:07;32.70;;;23.90;;
8702;SDS011;9002;42.708;23.186;2023-12-07T00:49:09;32.50;;;24.97;;
8702;SDS011;9002;42.708;23.186;2023-12-07T00:51:37;33.77;;;24.37;;
8702;SDS011;9002;42.708;23.186;2023-12-07T00:54:04;35.00;;;24.17;;
8702;SDS011;9002;42.708;23.186;2023-12-07T00:56:31;34.53;;;24.70;;
8702;SDS011;9002;42.708;23.186;2023-12-07T00:58:58;32.67;;;23.77;;
8702;SDS011;9002;42.708;23.186;2023-12-07T01:01:25;34.77;;;24.90;;
8702;SDS011;9002;42.708;23.186;2023-12-07T01:03:52;32.20;;;24.07;;
8702;SDS011;9002;42.708;23.186;2023-12-07T01:06:19;36.40;;;25.13;;
8702;SDS011;9002;42.708;23.186;2023-12-07T01:08:47;33.73;;;23.97;;
8702;SDS011;9002;42.708;23.186;2023-12-07T01:11:14;37.73;;;25.93;;
8702;SDS011;9002;42.708;23.186;2023-12-07T01:13:41;38.63;;;26.67;;
8702;SDS011;9002;42.708;23.186;2023-12-07T01:16:08;34.10;;;24.93;;
8702;SDS011;9002;42.708;23.186;2023-12-07T01:18:35;31.87;;;23.30;;
8702;SDS011;9002;42.708;23.186;2023-12-07T01:21:02;32.77;;;24.13;;
8702;SDS011;9002;42.708;23.186;2023-12-07T01:23:29;38.13;;;25.00;;
8702;SDS011;9002;42.708;23.186;2023-12-07T01:25:57;33.97;;;24.33;;
8702;SDS011;9002;42.708;23.186;2023-12-07T01:28:27;34.57;;;24.77;;
8702;SDS011;9002;42.708;23.186;2023-12-07T01:30:54;38.37;;;26.00;;
8702;SDS011;9002;42.708;23.186;2023-12-07T01:33:21;35.17;;;25.47;;
8702;SDS011;9002;42.708;23.186;2023-12-07T01:35:48;37.70;;;26.67;;
8702;SDS011;9002;42.708;23.186;2023-12-07T01:38:15;35.13;;;24.37;;
8702;SDS011;9002;42.708;23.186;2023-12-07T01:40:42;37.07;;;25.23;;
8702;SDS011;9002;42.708;23.186;2023-12-07T01:43:11;35.07;;;25.00;;
8702;SDS011;9002;42.708;23.186;2023-12-07T01:45:38;36.07;;;25.03;;
8702;SDS011;9002;42.708;23.186;2023-12-07T01:48:05;34.50;;;25.00;;
8702;SDS011;9002;42.708;23.186;2023-12-07T01:50:32;34.80;;;23.97;;
8702;SDS011;9002;42.708;23.186;2023-12-07T01:53:01;32.30;;;23.97;;
8702;SDS011;9002;42.708;23.186;2023-12-07T01:55:30;30.37;;;23.10;;
8702;SDS011;9002;42.708;23.186;2023-12-07T01:57:58;32.00;;;22.47;;
8702;SDS011;9002;42.708;23.186;2023-12-07T02:00:27;32.47;;;22.70;;
8702;SDS011;9002;42.708;23.186;2023-12-07T02:02:54;32.50;;;23.60;;
8702;SDS011;9002;42.708;23.186;2023-12-07T02:05:22;29.67;;;21.03;;
8702;SDS011;9002;42.708;23.186;2023-12-07T02:07:50;29.53;;;21.30;;
8702;SDS011;9002;42.708;23.186;2023-12-07T02:10:17;31.63;;;23.13;;
8702;SDS011;9002;42.708;23.186;2023-12-07T02:12:45;31.73;;;20.67;;
8702;SDS011;9002;42.708;23.186;2023-12-07T02:15:12;33.67;;;23.20;;
8702;SDS011;9002;42.708;23.186;2023-12-07T02:17:43;30.43;;;21.63;;
8702;SDS011;9002;42.708;23.186;2023-12-07T02:20:17;32.30;;;21.93;;
8702;SDS011;9002;42.708;23.186;2023-12-07T02:23:10;31.70;;;22.90;;
8702;SDS011;9002;42.708;23.186;2023-12-07T02:25:41;32.77;;;23.10;;
8702;SDS011;9002;42.708;23.186;2023-12-07T02:28:48;32.70;;;23.17;;
8702;SDS011;9002;42.708;23.186;2023-12-07T02:31:15;32.53;;;22.70;;
8702;SDS011;9002;42.708;23.186;2023-12-07T02:33:42;33.60;;;23.50;;
8702;SDS011;9002;42.708;23.186;2023-12-07T02:36:09;36.37;;;23.37;;
8702;SDS011;9002;42.708;23.186;2023-12-07T02:38:38;34.10;;;23.63;;
8702;SDS011;9002;42.708;23.186;2023-12-07T02:41:06;34.03;;;24.77;;
8702;SDS011;9002;42.708;23.186;2023-12-07T02:43:34;37.47;;;24.33;;
8702;SDS011;9002;42.708;23.186;2023-12-07T02:46:03;32.30;;;23.40;;
8702;SDS011;9002;42.708;23.186;2023-12-07T02:48:30;36.73;;;24.13;;
8702;SDS011;9002;42.708;23.186;2023-12-07T02:50:57;34.20;;;25.20;;
8702;SDS011;9002;42.708;23.186;2023-12-07T02:53:24;34.00;;;25.37;;
8702;SDS011;9002;42.708;23.186;2023-12-07T02:55:51;37.80;;;25.27;;
8702;SDS011;9002;42.708;23.186;2023-12-07T02:58:18;35.03;;;25.00;;
8702;SDS011;9002;42.708;23.186;2023-12-07T03:00:45;38.43;;;26.07;;
8702;SDS011;9002;42.708;23.186;2023-12-07T03:03:13;37.53;;;26.50;;
8702;SDS011;9002;42.708;23.186;2023-12-07T03:08:14;33.17;;;24.00;;
8702;SDS011;9002;42.708;23.186;2023-12-07T03:10:41;36.80;;;24.60;;
8702;SDS011;9002;42.708;23.186;2023-12-07T03:13:08;37.40;;;24.03;;
8702;SDS011;9002;42.708;23.186;2023-12-07T03:15:35;32.00;;;22.73;;
8702;SDS011;9002;42.708;23.186;2023-12-07T03:18:02;26.77;;;19.20;;
8702;SDS011;9002;42.708;23.186;2023-12-07T03:20:30;26.60;;;19.03;;
8702;SDS011;9002;42.708;23.186;2023-12-07T03:22:57;26.87;;;18.50;;
8702;SDS011;9002;42.708;23.186;2023-12-07T03:25:24;25.83;;;17.70;;
8702;SDS011;9002;42.708;23.186;2023-12-07T03:27:51;23.53;;;17.37;;
8702;SDS011;9002;42.708;23.186;2023-12-07T03:30:18;20.90;;;16.37;;
8702;SDS011;9002;42.708;23.186;2023-12-07T03:32:45;23.40;;;16.33;;
8702;SDS011;9002;42.708;23.186;2023-12-07T03:35:12;22.33;;;16.27;;
8702;SDS011;9002;42.708;23.186;2023-12-07T03:37:40;22.43;;;15.77;;
8702;SDS011;9002;42.708;23.186;2023-12-07T03:40:08;22.63;;;17.37;;
8702;SDS011;9002;42.708;23.186;2023-12-07T03:42:35;24.97;;;17.30;;
8702;SDS011;9002;42.708;23.186;2023-12-07T03:45:02;21.73;;;17.27;;
8702;SDS011;9002;42.708;23.186;2023-12-07T03:47:31;23.30;;;17.10;;
8702;SDS011;9002;42.708;23.186;2023-12-07T03:49:57;21.50;;;16.80;;
8702;SDS011;9002;42.708;23.186;2023-12-07T03:52:24;24.53;;;17.20;;
8702;SDS011;9002;42.708;23.186;2023-12-07T03:54:53;23.77;;;17.57;;
8702;SDS011;9002;42.708;23.186;2023-12-07T03:57:20;23.33;;;16.83;;
8702;SDS011;9002;42.708;23.186;2023-12-07T03:59:47;21.33;;;16.77;;
8702;SDS011;9002;42.708;23.186;2023-12-07T04:02:13;22.60;;;16.30;;
8702;SDS011;9002;42.708;23.186;2023-12-07T04:04:40;23.93;;;17.20;;
8702;SDS011;9002;42.708;23.186;2023-12-07T04:07:07;22.17;;;16.53;;
8702;SDS011;9002;42.708;23.186;2023-12-07T04:09:37;23.83;;;17.77;;
8702;SDS011;9002;42.708;23.186;2023-12-07T04:12:06;21.93;;;16.80;;
8702;SDS011;9002;42.708;23.186;2023-12-07T04:14:33;24.70;;;17.73;;
8702;SDS011;9002;42.708;23.186;2023-12-07T04:17:00;23.73;;;17.30;;
8702;SDS011;9002;42.708;23.186;2023-12-07T04:19:27;25.03;;;18.27;;
8702;SDS011;9002;42.708;23.186;2023-12-07T04:21:54;23.63;;;17.10;;
8702;SDS011;9002;42.708;23.186;2023-12-07T04:24:21;22.60;;;17.20;;
8702;SDS011;9002;42.708;23.186;2023-12-07T04:26:48;22.70;;;17.00;;
8702;SDS011;9002;42.708;23.186;2023-12-07T04:29:16;23.77;;;17.60;;
8702;SDS011;9002;42.708;23.186;2023-12-07T04:31:43;24.93;;;19.30;;
8702;SDS011;9002;42.708;23.186;2023-12-07T04:34:10;24.77;;;18.03;;
8702;SDS011;9002;42.708;23.186;2023-12-07T04:36:37;26.57;;;18.13;;
8702;SDS011;9002;42.708;23.186;2023-12-07T04:39:04;23.30;;;18.60;;
8702;SDS011;9002;42.708;23.186;2023-12-07T04:41:31;25.53;;;18.73;;
8702;SDS011;9002;42.708;23.186;2023-12-07T04:43:58;23.97;;;17.73;;
8702;SDS011;9002;42.708;23.186;2023-12-07T04:46:26;24.93;;;17.67;;
8702;SDS011;9002;42.708;23.186;2023-12-07T04:48:54;22.83;;;17.47;;
8702;SDS011;9002;42.708;23.186;2023-12-07T04:51:20;25.23;;;17.47;;
8702;SDS011;9002;42.708;23.186;2023-12-07T04:53:47;23.90;;;16.93;;
8702;SDS011;9002;42.708;23.186;2023-12-07T04:56:14;26.33;;;18.40;;
8702;SDS011;9002;42.708;23.186;2023-12-07T04:58:41;24.77;;;18.17;;
8702;SDS011;9002;42.708;23.186;2023-12-07T05:01:08;27.10;;;19.33;;
8702;SDS011;9002;42.708;23.186;2023-12-07T05:03:36;26.73;;;20.37;;
8702;SDS011;9002;42.708;23.186;2023-12-07T05:06:04;34.00;;;25.67;;
8702;SDS011;9002;42.708;23.186;2023-12-07T05:08:32;32.07;;;24.57;;
8702;SDS011;9002;42.708;23.186;2023-12-07T05:10:59;33.57;;;25.17;;
8702;SDS011;9002;42.708;23.186;2023-12-07T05:13:26;33.17;;;25.83;;
8702;SDS011;9002;42.708;23.186;2023-12-07T05:15:53;38.50;;;25.90;;
8702;SDS011;9002;42.708;23.186;2023-12-07T05:18:20;39.23;;;28.30;;
8702;SDS011;9002;42.708;23.186;2023-12-07T05:20:49;35.27;;;26.90;;
8702;SDS011;9002;42.708;23.186;2023-12-07T05:23:16;31.60;;;24.00;;
8702;SDS011;9002;42.708;23.186;2023-12-07T05:25:43;30.93;;;24.70;;
8702;SDS011;9002;42.708;23.186;2023-12-07T05:28:10;30.13;;;23.40;;
8702;SDS011;9002;42.708;23.186;2023-12-07T05:30:37;29.97;;;22.60;;
8702;SDS011;9002;42.708;23.186;2023-12-07T05:33:03;28.10;;;22.33;;
8702;SDS011;9002;42.708;23.186;2023-12-07T05:35:30;28.33;;;21.23;;
8702;SDS011;9002;42.708;23.186;2023-12-07T05:38:00;26.17;;;20.17;;
8702;SDS011;9002;42.708;23.186;2023-12-07T05:40:27;25.73;;;19.60;;
8702;SDS011;9002;42.708;23.186;2023-12-07T05:42:54;27.13;;;20.47;;
8702;SDS011;9002;42.708;23.186;2023-12-07T05:45:21;30.23;;;21.30;;
8702;SDS011;9002;42.708;23.186;2023-12-07T05:47:48;29.53;;;21.00;;
8702;SDS011;9002;42.708;23.186;2023-12-07T05:50:15;31.70;;;23.27;;
8702;SDS011;9002;42.708;23.186;2023-12-07T05:52:42;26.53;;;18.90;;
8702;SDS011;9002;42.708;23.186;2023-12-07T05:55:10;23.80;;;17.80;;
8702;SDS011;9002;42.708;23.186;2023-12-07T05:57:37;24.23;;;17.40;;
8702;SDS011;9002;42.708;23.186;2023-12-07T06:00:04;27.17;;;20.70;;
8702;SDS011;9002;42.708;23.186;2023-12-07T06:02:34;29.17;;;21.13;;
8702;SDS011;9002;42.708;23.186;2023-12-07T06:05:01;25.90;;;19.90;;
8702;SDS011;9002;42.708;23.186;2023-12-07T06:07:29;25.27;;;16.90;;
8702;SDS011;9002;42.708;23.186;2023-12-07T06:09:56;26.23;;;17.60;;
8702;SDS011;9002;42.708;23.186;2023-12-07T06:12:24;23.43;;;16.53;;
8702;SDS011;9002;42.708;23.186;2023-12-07T06:14:51;25.60;;;18.17;;
8702;SDS011;9002;42.708;23.186;2023-12-07T06:17:19;27.73;;;20.57;;
8702;SDS011;9002;42.708;23.186;2023-12-07T06:19:46;30.63;;;21.80;;
8702;SDS011;9002;42.708;23.186;2023-12-07T06:22:13;35.57;;;26.37;;
8702;SDS011;9002;42.708;23.186;2023-12-07T06:24:40;41.00;;;25.73;;
8702;SDS011;9002;42.708;23.186;2023-12-07T06:27:07;34.23;;;25.37;;
8702;SDS011;9002;42.708;23.186;2023-12-07T06:29:36;33.53;;;24.97;;
8702;SDS011;9002;42.708;23.186;2023-12-07T06:32:05;35.17;;;26.07;;
8702;SDS011;9002;42.708;23.186;2023-12-07T06:34:32;31.97;;;23.37;;
8702;SDS011;9002;42.708;23.186;2023-12-07T06:36:59;32.97;;;25.37;;
8702;SDS011;9002;42.708;23.186;2023-12-07T06:39:25;35.13;;;26.50;;
8702;SDS011;9002;42.708;23.186;2023-12-07T06:41:53;35.13;;;24.73;;
8702;SDS011;9002;42.708;23.186;2023-12-07T06:44:20;29.20;;;23.27;;
8702;SDS011;9002;42.708;23.186;2023-12-07T06:46:49;31.03;;;22.23;;
8702;SDS011;9002;42.708;23.186;2023-12-07T06:49:15;27.67;;;21.47;;
8702;SDS011;9002;42.708;23.186;2023-12-07T06:51:42;24.83;;;17.73;;
8702;SDS011;9002;42.708;23.186;2023-12-07T06:54:09;24.40;;;17.93;;
8702;SDS011;9002;42.708;23.186;2023-12-07T06:56:36;19.50;;;15.50;;
8702;SDS011;9002;42.708;23.186;2023-12-07T06:59:03;21.50;;;16.83;;
8702;SDS011;9002;42.708;23.186;2023-12-07T07:01:30;17.83;;;13.93;;
8702;SDS011;9002;42.708;23.186;2023-12-07T07:03:59;25.63;;;19.77;;
8702;SDS011;9002;42.708;23.186;2023-12-07T07:06:25;37.00;;;29.77;;
8702;SDS011;9002;42.708;23.186;2023-12-07T07:08:52;28.73;;;22.20;;
8702;SDS011;9002;42.708;23.186;2023-12-07T07:11:19;35.70;;;28.37;;
8702;SDS011;9002;42.708;23.186;2023-12-07T07:13:46;29.53;;;22.93;;
8702;SDS011;9002;42.708;23.186;2023-12-07T07:16:13;23.83;;;19.03;;
8702;SDS011;9002;42.708;23.186;2023-12-07T07:18:40;21.90;;;15.90;;
8702;SDS011;9002;42.708;23.186;2023-12-07T07:21:08;21.73;;;15.10;;
8702;SDS011;9002;42.708;23.186;2023-12-07T07:23:35;18.63;;;13.70;;
8702;SDS011;9002;42.708;23.186;2023-12-07T07:26:03;23.70;;;16.57;;
8702;SDS011;9002;42.708;23.186;2023-12-07T07:28:30;21.27;;;15.77;;
8702;SDS011;9002;42.708;23.186;2023-12-07T07:30:57;17.93;;;14.73;;
8702;SDS011;9002;42.708;23.186;2023-12-07T07:33:25;19.97;;;14.57;;
8702;SDS011;9002;42.708;23.186;2023-12-07T07:35:52;22.17;;;15.23;;
8702;SDS011;9002;42.708;23.186;2023-12-07T07:38:20;22.23;;;16.53;;
8702;SDS011;9002;42.708;23.186;2023-12-07T07:40:48;19.23;;;14.20;;
8702;SDS011;9002;42.708;23.186;2023-12-07T07:43:15;17.67;;;12.90;;
8702;SDS011;9002;42.708;23.186;2023-12-07T07:45:42;19.13;;;12.93;;
8702;SDS011;9002;42.708;23.186;2023-12-07T07:48:09;15.90;;;12.83;;
8702;SDS011;9002;42.708;23.186;2023-12-07T07:50:36;15.17;;;12.30;;
8702;SDS011;9002;42.708;23.186;2023-12-07T07:53:03;13.13;;;10.93;;
8702;SDS011;9002;42.708;23.186;2023-12-07T07:55:31;12.90;;;9.30;;
8702;SDS011;9002;42.708;23.186;2023-12-07T07:57:58;10.77;;;8.53;;
8702;SDS011;9002;42.708;23.186;2023-12-07T08:00:25;11.90;;;9.60;;
8702;SDS011;9002;42.708;23.186;2023-12-07T08:02:53;11.40;;;9.47;;
8702;SDS011;9002;42.708;23.186;2023-12-07T08:08:42;10.20;;;8.20;;
8702;SDS011;9002;42.708;23.186;2023-12-07T08:11:10;8.63;;;7.73;;
8702;SDS011;9002;42.708;23.186;2023-12-07T08:13:40;9.90;;;8.20;;
8702;SDS011;9002;42.708;23.186;2023-12-07T08:16:07;9.97;;;8.70;;
8702;SDS011;9002;42.708;23.186;2023-12-07T08:18:34;8.20;;;7.27;;
8702;SDS011;9002;42.708;23.186;2023-12-07T08:21:03;9.37;;;7.77;;
8702;SDS011;9002;42.708;23.186;2023-12-07T08:23:33;8.93;;;8.03;;
8702;SDS011;9002;42.708;23.186;2023-12-07T08:26:00;8.37;;;7.37;;
8702;SDS011;9002;42.708;23.186;2023-12-07T08:28:29;10.43;;;8.43;;
8702;SDS011;9002;42.708;23.186;2023-12-07T08:30:56;9.03;;;8.10;;
8702;SDS011;9002;42.708;23.186;2023-12-07T08:33:23;8.77;;;6.90;;
8702;SDS011;9002;42.708;23.186;2023-12-07T08:35:50;10.10;;;7.90;;
8702;SDS011;9002;42.708;23.186;2023-12-07T08:38:20;12.53;;;8.73;;
8702;SDS011;9002;42.708;23.186;2023-12-07T08:40:48;11.43;;;9.00;;
8702;SDS011;9002;42.708;23.186;2023-12-07T08:43:15;10.13;;;8.93;;
8702;SDS011;9002;42.708;23.186;2023-12-07T08:45:43;6.63;;;5.97;;
8702;SDS011;9002;42.708;23.186;2023-12-07T08:48:10;6.23;;;5.50;;
8702;SDS011;9002;42.708;23.186;2023-12-07T08:50:37;9.10;;;6.63;;
8702;SDS011;9002;42.708;23.186;2023-12-07T08:53:04;6.70;;;5.97;;
8702;SDS011;9002;42.708;23.186;2023-12-07T08:55:31;6.83;;;5.70;;
8702;SDS011;9002;42.708;23.186;2023-12-07T08:57:58;7.43;;;5.80;;
8702;SDS011;9002;42.708;23.186;2023-12-07T09:00:25;7.17;;;6.17;;
8702;SDS011;9002;42.708;23.186;2023-12-07T09:02:54;6.10;;;5.43;;
8702;SDS011;9002;42.708;23.186;2023-12-07T09:05:21;6.60;;;5.85;;
8702;SDS011;9002;42.708;23.186;2023-12-07T09:07:48;7.90;;;6.60;;
8702;SDS011;9002;42.708;23.186;2023-12-07T09:10:15;8.20;;;6.30;;
8702;SDS011;9002;42.708;23.186;2023-12-07T09:12:42;6.22;;;5.50;;
8702;SDS011;9002;42.708;23.186;2023-12-07T09:15:09;7.53;;;5.63;;
8702;SDS011;9002;42.708;23.186;2023-12-07T09:17:37;5.60;;;4.43;;
8702;SDS011;9002;42.708;23.186;2023-12-07T09:20:06;7.22;;;5.72;;
8702;SDS011;9002;42.708;23.186;2023-12-07T09:22:37;5.68;;;4.75;;
8702;SDS011;9002;42.708;23.186;2023-12-07T09:25:05;6.68;;;5.22;;
8702;SDS011;9002;42.708;23.186;2023-12-07T09:27:33;7.15;;;5.55;;
8702;SDS011;9002;42.708;23.186;2023-12-07T09:30:03;7.95;;;6.22;;
8702;SDS011;9002;42.708;23.186;2023-12-07T09:32:32;8.00;;;6.32;;
8702;SDS011;9002;42.708;23.186;2023-12-07T09:35:03;6.57;;;5.88;;
8702;SDS011;9002;42.708;23.186;2023-12-07T09:37:33;6.60;;;5.93;;
8702;SDS011;9002;42.708;23.186;2023-12-07T09:40:00;8.82;;;7.00;;
8702;SDS011;9002;42.708;23.186;2023-12-07T09:42:29;7.97;;;6.97;;
8702;SDS011;9002;42.708;23.186;2023-12-07T09:44:56;10.20;;;7.10;;
8702;SDS011;9002;42.708;23.186;2023-12-07T09:47:23;6.43;;;5.53;;
8702;SDS011;9002;42.708;23.186;2023-12-07T09:49:52;7.82;;;6.50;;
8702;SDS011;9002;42.708;23.186;2023-12-07T09:52:21;9.07;;;7.30;;
8702;SDS011;9002;42.708;23.186;2023-12-07T09:54:49;8.85;;;6.82;;
8702;SDS011;9002;42.708;23.186;2023-12-07T09:57:18;9.27;;;7.00;;
8702;SDS011;9002;42.708;23.186;2023-12-07T09:59:45;7.25;;;6.53;;
8702;SDS011;9002;42.708;23.186;2023-12-07T10:02:13;11.18;;;9.45;;
8702;SDS011;9002;42.708;23.186;2023-12-07T10:04:40;9.82;;;8.18;;
8702;SDS011;9002;42.708;23.186;2023-12-07T10:07:07;9.40;;;8.32;;
8702;SDS011;9002;42.708;23.186;2023-12-07T10:09:39;6.03;;;4.72;;
8702;SDS011;9002;42.708;23.186;2023-12-07T10:12:07;6.25;;;5.65;;
8702;SDS011;9002;42.708;23.186;2023-12-07T10:14:35;7.25;;;4.85;;
8702;SDS011;9002;42.708;23.186;2023-12-07T10:17:04;6.13;;;4.57;;
8702;SDS011;9002;42.708;23.186;2023-12-07T10:19:31;5.93;;;5.32;;
8702;SDS011;9002;42.708;23.186;2023-12-07T10:21:58;6.60;;;4.80;;
8702;SDS011;9002;42.708;23.186;2023-12-07T10:24:26;5.65;;;4.68;;
8702;SDS011;9002;42.708;23.186;2023-12-07T10:26:57;8.43;;;5.20;;
8702;SDS011;9002;42.708;23.186;2023-12-07T10:29:24;6.13;;;4.60;;
8702;SDS011;9002;42.708;23.186;2023-12-07T10:31:59;4.97;;;3.90;;
8702;SDS011;9002;42.708;23.186;2023-12-07T10:34:26;6.57;;;3.70;;
8702;SDS011;9002;42.708;23.186;2023-12-07T10:36:53;4.32;;;3.92;;
8702;SDS011;9002;42.708;23.186;2023-12-07T10:39:23;4.82;;;4.43;;
8702;SDS011;9002;42.708;23.186;2023-12-07T10:41:52;6.05;;;5.55;;
8702;SDS011;9002;42.708;23.186;2023-12-07T10:44:24;10.77;;;8.57;;
8702;SDS011;9002;42.708;23.186;2023-12-07T10:46:54;13.15;;;11.48;;
8702;SDS011;9002;42.708;23.186;2023-12-07T10:49:24;11.10;;;10.00;;
8702;SDS011;9002;42.708;23.186;2023-12-07T10:51:54;11.70;;;10.30;;
8702;SDS011;9002;42.708;23.186;2023-12-07T10:54:28;11.63;;;10.15;;
8702;SDS011;9002;42.708;23.186;2023-12-07T10:57:07;8.85;;;6.82;;
8702;SDS011;9002;42.708;23.186;2023-12-07T10:59:36;13.00;;;7.50;;
8702;SDS011;9002;42.708;23.186;2023-12-07T11:02:05;7.18;;;6.10;;
8702;SDS011;9002;42.708;23.186;2023-12-07T11:04:36;6.70;;;5.72;;
8702;SDS011;9002;42.708;23.186;2023-12-07T11:07:06;10.15;;;7.30;;
8702;SDS011;9002;42.708;23.186;2023-12-07T11:09:38;9.25;;;8.07;;
8702;SDS011;9002;42.708;23.186;2023-12-07T11:12:12;12.00;;;10.77;;
8702;SDS011;9002;42.708;23.186;2023-12-07T11:14:46;11.15;;;9.35;;
8702;SDS011;9002;42.708;23.186;2023-12-07T11:17:14;7.38;;;6.30;;
8702;SDS011;9002;42.708;23.186;2023-12-07T11:19:45;6.53;;;5.93;;
8702;SDS011;9002;42.708;23.186;2023-12-07T11:22:13;8.63;;;6.72;;
8702;SDS011;9002;42.708;23.186;2023-12-07T11:24:53;10.82;;;8.40;;
8702;SDS011;9002;42.708;23.186;2023-12-07T11:27:22;7.68;;;5.88;;
8702;SDS011;9002;42.708;23.186;2023-12-07T11:29:52;7.47;;;6.75;;
8702;SDS011;9002;42.708;23.186;2023-12-07T11:32:25;9.15;;;6.82;;
8702;SDS011;9002;42.708;23.186;2023-12-07T11:34:53;8.90;;;7.18;;
8702;SDS011;9002;42.708;23.186;2023-12-07T11:37:20;10.45;;;9.35;;
8702;SDS011;9002;42.708;23.186;2023-12-07T11:39:47;14.63;;;13.13;;
8702;SDS011;9002;42.708;23.186;2023-12-07T11:42:15;24.05;;;21.50;;
8702;SDS011;9002;42.708;23.186;2023-12-07T11:44:44;26.20;;;23.52;;
8702;SDS011;9002;42.708;23.186;2023-12-07T11:47:17;26.70;;;21.90;;
8702;SDS011;9002;42.708;23.186;2023-12-07T11:49:45;24.48;;;19.52;;
8702;SDS011;9002;42.708;23.186;2023-12-07T11:52:12;15.60;;;13.98;;
8702;SDS011;9002;42.708;23.186;2023-12-07T11:54:42;11.98;;;10.60;;
8702;SDS011;9002;42.708;23.186;2023-12-07T11:57:10;11.38;;;10.18;;
8702;SDS011;9002;42.708;23.186;2023-12-07T11:59:37;8.88;;;7.97;;
8702;SDS011;9002;42.708;23.186;2023-12-07T12:02:04;8.90;;;7.07;;
8702;SDS011;9002;42.708;23.186;2023-12-07T12:04:33;8.02;;;6.30;;
8702;SDS011;9002;42.708;23.186;2023-12-07T12:07:00;7.03;;;6.22;;
8702;SDS011;9002;42.708;23.186;2023-12-07T12:09:26;6.35;;;5.75;;
8702;SDS011;9002;42.708;23.186;2023-12-07T12:11:54;8.90;;;6.72;;
8702;SDS011;9002;42.708;23.186;2023-12-07T12:14:25;7.20;;;6.00;;
8702;SDS011;9002;42.708;23.186;2023-12-07T12:16:53;7.35;;;5.80;;
8702;SDS011;9002;42.708;23.186;2023-12-07T12:19:21;8.60;;;6.40;;
8702;SDS011;9002;42.708;23.186;2023-12-07T12:21:50;6.80;;;6.10;;
8702;SDS011;9002;42.708;23.186;2023-12-07T12:24:17;6.72;;;6.07;;
8702;SDS011;9002;42.708;23.186;2023-12-07T12:26:44;9.63;;;8.40;;
8702;SDS011;9002;42.708;23.186;2023-12-07T12:29:12;10.95;;;7.80;;
8702;SDS011;9002;42.708;23.186;2023-12-07T12:31:39;8.43;;;7.03;;
8702;SDS011;9002;42.708;23.186;2023-12-07T12:34:06;11.43;;;9.48;;
8702;SDS011;9002;42.708;23.186;2023-12-07T12:36:36;12.13;;;10.65;;
8702;SDS011;9002;42.708;23.186;2023-12-07T12:39:04;11.05;;;9.95;;
8702;SDS011;9002;42.708;23.186;2023-12-07T12:41:33;10.48;;;8.80;;
8702;SDS011;9002;42.708;23.186;2023-12-07T12:44:00;10.50;;;7.93;;
8702;SDS011;9002;42.708;23.186;2023-12-07T12:46:27;8.45;;;7.10;;
8702;SDS011;9002;42.708;23.186;2023-12-07T12:48:55;8.52;;;7.63;;
8702;SDS011;9002;42.708;23.186;2023-12-07T12:51:23;8.05;;;7.25;;
8702;SDS011;9002;42.708;23.186;2023-12-07T12:53:52;8.40;;;7.13;;
8702;SDS011;9002;42.708;23.186;2023-12-07T12:56:22;7.28;;;5.60;;
8702;SDS011;9002;42.708;23.186;2023-12-07T12:58:49;7.70;;;6.68;;
8702;SDS011;9002;42.708;23.186;2023-12-07T13:01:16;9.55;;;6.75;;
8702;SDS011;9002;42.708;23.186;2023-12-07T13:03:44;8.05;;;6.68;;
8702;SDS011;9002;42.708;23.186;2023-12-07T13:06:12;7.80;;;7.05;;
8702;SDS011;9002;42.708;23.186;2023-12-07T13:08:39;8.20;;;7.03;;
8702;SDS011;9002;42.708;23.186;2023-12-07T13:11:06;7.25;;;6.53;;
8702;SDS011;9002;42.708;23.186;2023-12-07T13:13:35;9.50;;;8.13;;
8702;SDS011;9002;42.708;23.186;2023-12-07T13:16:02;7.40;;;6.38;;
8702;SDS011;9002;42.708;23.186;2023-12-07T13:18:29;7.80;;;7.03;;
8702;SDS011;9002;42.708;23.186;2023-12-07T13:20:56;8.27;;;6.72;;
8702;SDS011;9002;42.708;23.186;2023-12-07T13:23:24;8.63;;;7.10;;
8702;SDS011;9002;42.708;23.186;2023-12-07T13:25:51;14.45;;;10.85;;
8702;SDS011;9002;42.708;23.186;2023-12-07T13:28:19;13.90;;;12.43;;
8702;SDS011;9002;42.708;23.186;2023-12-07T13:30:49;13.93;;;12.52;;
8702;SDS011;9002;42.708;23.186;2023-12-07T13:33:16;12.07;;;10.63;;
8702;SDS011;9002;42.708;23.186;2023-12-07T13:35:43;12.45;;;10.98;;
8702;SDS011;9002;42.708;23.186;2023-12-07T13:38:10;10.32;;;9.32;;
8702;SDS011;9002;42.708;23.186;2023-12-07T13:40:37;11.40;;;9.20;;
8702;SDS011;9002;42.708;23.186;2023-12-07T13:43:04;10.68;;;9.07;;
8702;SDS011;9002;42.708;23.186;2023-12-07T13:45:31;9.65;;;8.65;;
8702;SDS011;9002;42.708;23.186;2023-12-07T13:48:00;9.40;;;8.40;;
8702;SDS011;9002;42.708;23.186;2023-12-07T13:50:27;9.90;;;8.85;;
8702;SDS011;9002;42.708;23.186;2023-12-07T13:52:54;9.43;;;8.10;;
8702;SDS011;9002;42.708;23.186;2023-12-07T13:55:21;11.52;;;8.82;;
8702;SDS011;9002;42.708;23.186;2023-12-07T13:57:49;9.75;;;8.73;;
8702;SDS011;9002;42.708;23.186;2023-12-07T14:00:18;10.60;;;8.70;;
8702;SDS011;9002;42.708;23.186;2023-12-07T14:02:45;14.05;;;10.55;;
8702;SDS011;9002;42.708;23.186;2023-12-07T14:05:13;12.55;;;9.90;;
8702;SDS011;9002;42.708;23.186;2023-12-07T14:07:41;10.13;;;8.32;;
8702;SDS011;9002;42.708;23.186;2023-12-07T14:10:08;11.70;;;10.48;;
8702;SDS011;9002;42.708;23.186;2023-12-07T14:12:35;11.32;;;9.65;;
8702;SDS011;9002;42.708;23.186;2023-12-07T14:15:02;12.45;;;9.73;;
8702;SDS011;9002;42.708;23.186;2023-12-07T14:17:30;12.50;;;9.57;;
8702;SDS011;9002;42.708;23.186;2023-12-07T14:20:02;12.02;;;10.70;;
8702;SDS011;9002;42.708;23.186;2023-12-07T14:22:31;20.35;;;14.45;;
8702;SDS011;9002;42.708;23.186;2023-12-07T14:24:58;13.85;;;11.68;;
8702;SDS011;9002;42.708;23.186;2023-12-07T14:27:25;16.23;;;13.93;;
8702;SDS011;9002;42.708;23.186;2023-12-07T14:29:52;16.63;;;13.93;;
8702;SDS011;9002;42.708;23.186;2023-12-07T14:32:19;16.90;;;13.07;;
8702;SDS011;9002;42.708;23.186;2023-12-07T14:34:46;16.00;;;13.65;;
8702;SDS011;9002;42.708;23.186;2023-12-07T14:37:13;16.75;;;13.95;;
8702;SDS011;9002;42.708;23.186;2023-12-07T14:39:42;17.35;;;14.50;;
8702;SDS011;9002;42.708;23.186;2023-12-07T14:42:09;20.33;;;13.43;;
8702;SDS011;9002;42.708;23.186;2023-12-07T14:44:36;19.38;;;15.23;;
8702;SDS011;9002;42.708;23.186;2023-12-07T14:47:03;17.25;;;14.13;;
8702;SDS011;9002;42.708;23.186;2023-12-07T14:49:30;17.73;;;14.20;;
8702;SDS011;9002;42.708;23.186;2023-12-07T14:51:57;21.73;;;17.17;;
8702;SDS011;9002;42.708;23.186;2023-12-07T14:54:25;19.52;;;17.23;;
8702;SDS011;9002;42.708;23.186;2023-12-07T14:56:54;22.02;;;19.70;;
8702;SDS011;9002;42.708;23.186;2023-12-07T14:59:22;19.98;;;17.33;;